sensor_id;sensor_type;location;lat;lon;timestamp;P1;durP1;ratioP1;P2;durP2;ratioP2
56537;SDS011;42435;53.292;6.000;2023-07-16T00:01:10;19.45;;;4.90;;
56537;SDS011;42435;53.292;6.000;2023-07-16T00:03:35;13.25;;;5.15;;
56537;SDS011;42435;53.292;6.000;2023-07-16T00:06:02;12.90;;;4.90;;
56537;SDS011;42435;53.292;6.000;2023-07-16T00:08:28;16.65;;;4.93;;
56537;SDS011;42435;53.292;6.000;2023-07-16T00:10:54;17.45;;;4.88;;
56537;SDS011;42435;53.292;6.000;2023-07-16T00:13:19;11.32;;;4.47;;
56537;SDS011;42435;53.292;6.000;2023-07-16T00:15:45;15.13;;;4.68;;
56537;SDS011;42435;53.292;6.000;2023-07-16T00:18:10;14.13;;;4.80;;
56537;SDS011;42435;53.292;6.000;2023-07-16T00:20:36;17.15;;;5.40;;
56537;SDS011;42435;53.292;6.000;2023-07-16T00:23:01;14.07;;;4.55;;
56537;SDS011;42435;53.292;6.000;2023-07-16T00:25:27;14.35;;;5.75;;
56537;SDS011;42435;53.292;6.000;2023-07-16T00:27:53;12.02;;;4.32;;
56537;SDS011;42435;53.292;6.000;2023-07-16T00:30:18;13.68;;;4.90;;
56537;SDS011;42435;53.292;6.000;2023-07-16T00:32:44;23.33;;;6.00;;
56537;SDS011;42435;53.292;6.000;2023-07-16T00:35:11;12.48;;;5.05;;
56537;SDS011;42435;53.292;6.000;2023-07-16T00:37:36;15.02;;;5.13;;
56537;SDS011;42435;53.292;6.000;2023-07-16T00:40:02;15.38;;;5.63;;
56537;SDS011;42435;53.292;6.000;2023-07-16T00:42:29;17.95;;;5.43;;
56537;SDS011;42435;53.292;6.000;2023-07-16T00:44:54;13.13;;;4.78;;
56537;SDS011;42435;53.292;6.000;2023-07-16T00:47:20;15.93;;;4.97;;
56537;SDS011;42435;53.292;6.000;2023-07-16T00:49:47;13.45;;;3.70;;
56537;SDS011;42435;53.292;6.000;2023-07-16T00:52:16;13.77;;;3.67;;
56537;SDS011;42435;53.292;6.000;2023-07-16T00:54:44;14.27;;;4.35;;
56537;SDS011;42435;53.292;6.000;2023-07-16T00:57:10;11.90;;;3.78;;
56537;SDS011;42435;53.292;6.000;2023-07-16T00:59:35;15.70;;;4.28;;
56537;SDS011;42435;53.292;6.000;2023-07-16T01:02:01;11.85;;;3.97;;
56537;SDS011;42435;53.292;6.000;2023-07-16T01:04:27;15.18;;;3.50;;
56537;SDS011;42435;53.292;6.000;2023-07-16T01:06:53;9.52;;;4.03;;
56537;SDS011;42435;53.292;6.000;2023-07-16T01:09:22;13.23;;;4.07;;
56537;SDS011;42435;53.292;6.000;2023-07-16T01:11:49;15.95;;;4.63;;
56537;SDS011;42435;53.292;6.000;2023-07-16T01:14:16;14.00;;;4.57;;
56537;SDS011;42435;53.292;6.000;2023-07-16T01:16:44;10.70;;;4.40;;
56537;SDS011;42435;53.292;6.000;2023-07-16T01:19:10;9.75;;;3.55;;
56537;SDS011;42435;53.292;6.000;2023-07-16T01:30:24;10.98;;;4.50;;
56537;SDS011;42435;53.292;6.000;2023-07-16T01:32:53;8.85;;;3.70;;
56537;SDS011;42435;53.292;6.000;2023-07-16T01:35:19;12.00;;;3.90;;
56537;SDS011;42435;53.292;6.000;2023-07-16T01:37:45;12.25;;;3.63;;
56537;SDS011;42435;53.292;6.000;2023-07-16T01:40:11;12.77;;;4.40;;
56537;SDS011;42435;53.292;6.000;2023-07-16T01:42:37;10.68;;;3.63;;
56537;SDS011;42435;53.292;6.000;2023-07-16T01:45:05;12.48;;;3.90;;
56537;SDS011;42435;53.292;6.000;2023-07-16T01:50:21;14.90;;;4.22;;
56537;SDS011;42435;53.292;6.000;2023-07-16T01:52:48;11.95;;;4.10;;
56537;SDS011;42435;53.292;6.000;2023-07-16T01:55:17;12.50;;;4.47;;
56537;SDS011;42435;53.292;6.000;2023-07-16T01:57:42;9.02;;;3.85;;
56537;SDS011;42435;53.292;6.000;2023-07-16T02:00:09;12.20;;;4.35;;
56537;SDS011;42435;53.292;6.000;2023-07-16T02:02:35;12.25;;;4.47;;
56537;SDS011;42435;53.292;6.000;2023-07-16T02:05:01;9.95;;;3.42;;
56537;SDS011;42435;53.292;6.000;2023-07-16T02:07:30;11.18;;;3.92;;
56537;SDS011;42435;53.292;6.000;2023-07-16T02:09:55;13.95;;;3.60;;
56537;SDS011;42435;53.292;6.000;2023-07-16T02:12:21;10.15;;;3.40;;
56537;SDS011;42435;53.292;6.000;2023-07-16T02:14:46;11.85;;;3.30;;
56537;SDS011;42435;53.292;6.000;2023-07-16T02:17:12;11.88;;;3.25;;
56537;SDS011;42435;53.292;6.000;2023-07-16T02:19:37;11.68;;;3.40;;
56537;SDS011;42435;53.292;6.000;2023-07-16T02:22:04;8.18;;;3.10;;
56537;SDS011;42435;53.292;6.000;2023-07-16T02:24:30;13.15;;;4.20;;
56537;SDS011;42435;53.292;6.000;2023-07-16T02:26:55;8.25;;;2.45;;
56537;SDS011;42435;53.292;6.000;2023-07-16T02:29:21;11.02;;;3.30;;
56537;SDS011;42435;53.292;6.000;2023-07-16T02:31:47;9.07;;;3.25;;
56537;SDS011;42435;53.292;6.000;2023-07-16T02:34:13;8.60;;;2.70;;
56537;SDS011;42435;53.292;6.000;2023-07-16T02:36:39;10.52;;;3.17;;
56537;SDS011;42435;53.292;6.000;2023-07-16T02:39:05;10.30;;;3.17;;
56537;SDS011;42435;53.292;6.000;2023-07-16T02:41:30;8.90;;;3.47;;
56537;SDS011;42435;53.292;6.000;2023-07-16T02:44:00;10.10;;;3.50;;
56537;SDS011;42435;53.292;6.000;2023-07-16T02:46:29;12.80;;;3.40;;
56537;SDS011;42435;53.292;6.000;2023-07-16T02:48:57;9.98;;;3.80;;
56537;SDS011;42435;53.292;6.000;2023-07-16T02:51:22;10.88;;;3.35;;
56537;SDS011;42435;53.292;6.000;2023-07-16T02:53:48;14.73;;;5.18;;
56537;SDS011;42435;53.292;6.000;2023-07-16T02:56:13;9.90;;;4.38;;
56537;SDS011;42435;53.292;6.000;2023-07-16T02:58:39;13.85;;;5.07;;
56537;SDS011;42435;53.292;6.000;2023-07-16T03:01:05;16.75;;;5.22;;
56537;SDS011;42435;53.292;6.000;2023-07-16T03:03:32;13.77;;;4.85;;
56537;SDS011;42435;53.292;6.000;2023-07-16T03:05:58;11.82;;;5.88;;
56537;SDS011;42435;53.292;6.000;2023-07-16T03:08:23;12.68;;;4.72;;
56537;SDS011;42435;53.292;6.000;2023-07-16T03:10:54;10.85;;;4.78;;
56537;SDS011;42435;53.292;6.000;2023-07-16T03:13:20;15.48;;;5.35;;
56537;SDS011;42435;53.292;6.000;2023-07-16T03:15:46;12.73;;;5.00;;
56537;SDS011;42435;53.292;6.000;2023-07-16T03:18:11;11.32;;;5.50;;
56537;SDS011;42435;53.292;6.000;2023-07-16T03:20:37;12.45;;;5.40;;
56537;SDS011;42435;53.292;6.000;2023-07-16T03:23:03;15.65;;;5.20;;
56537;SDS011;42435;53.292;6.000;2023-07-16T03:25:28;12.13;;;5.95;;
56537;SDS011;42435;53.292;6.000;2023-07-16T03:27:54;13.63;;;5.70;;
56537;SDS011;42435;53.292;6.000;2023-07-16T03:30:19;12.77;;;5.70;;
56537;SDS011;42435;53.292;6.000;2023-07-16T03:32:45;13.85;;;5.60;;
56537;SDS011;42435;53.292;6.000;2023-07-16T03:35:10;13.45;;;5.95;;
56537;SDS011;42435;53.292;6.000;2023-07-16T03:37:37;12.93;;;5.55;;
56537;SDS011;42435;53.292;6.000;2023-07-16T03:40:16;11.82;;;5.22;;
56537;SDS011;42435;53.292;6.000;2023-07-16T03:42:46;11.75;;;5.15;;
56537;SDS011;42435;53.292;6.000;2023-07-16T03:45:15;13.70;;;6.60;;
56537;SDS011;42435;53.292;6.000;2023-07-16T03:47:40;15.93;;;6.28;;
56537;SDS011;42435;53.292;6.000;2023-07-16T03:50:06;14.07;;;5.40;;
56537;SDS011;42435;53.292;6.000;2023-07-16T03:52:32;14.35;;;5.95;;
56537;SDS011;42435;53.292;6.000;2023-07-16T03:54:58;15.50;;;6.88;;
56537;SDS011;42435;53.292;6.000;2023-07-16T03:57:24;12.90;;;5.97;;
56537;SDS011;42435;53.292;6.000;2023-07-16T03:59:49;16.02;;;6.75;;
56537;SDS011;42435;53.292;6.000;2023-07-16T04:02:15;11.95;;;6.20;;
56537;SDS011;42435;53.292;6.000;2023-07-16T04:04:40;14.80;;;5.90;;
56537;SDS011;42435;53.292;6.000;2023-07-16T04:07:06;14.02;;;5.43;;
56537;SDS011;42435;53.292;6.000;2023-07-16T04:09:31;12.93;;;5.53;;
56537;SDS011;42435;53.292;6.000;2023-07-16T04:12:05;12.00;;;5.10;;
56537;SDS011;42435;53.292;6.000;2023-07-16T04:14:31;11.63;;;5.65;;
56537;SDS011;42435;53.292;6.000;2023-07-16T04:16:57;13.93;;;5.43;;
56537;SDS011;42435;53.292;6.000;2023-07-16T04:19:23;13.98;;;6.55;;
56537;SDS011;42435;53.292;6.000;2023-07-16T04:21:49;14.80;;;5.75;;
56537;SDS011;42435;53.292;6.000;2023-07-16T04:24:14;14.75;;;6.63;;
56537;SDS011;42435;53.292;6.000;2023-07-16T04:26:40;15.52;;;6.72;;
56537;SDS011;42435;53.292;6.000;2023-07-16T04:29:06;17.30;;;6.78;;
56537;SDS011;42435;53.292;6.000;2023-07-16T04:31:31;15.70;;;6.30;;
56537;SDS011;42435;53.292;6.000;2023-07-16T04:33:57;13.45;;;6.53;;
56537;SDS011;42435;53.292;6.000;2023-07-16T04:36:25;15.18;;;6.63;;
56537;SDS011;42435;53.292;6.000;2023-07-16T04:38:51;16.02;;;6.93;;
56537;SDS011;42435;53.292;6.000;2023-07-16T04:41:17;13.68;;;5.85;;
56537;SDS011;42435;53.292;6.000;2023-07-16T04:43:44;17.05;;;6.13;;
56537;SDS011;42435;53.292;6.000;2023-07-16T04:46:11;11.73;;;6.38;;
56537;SDS011;42435;53.292;6.000;2023-07-16T04:48:38;12.32;;;5.57;;
56537;SDS011;42435;53.292;6.000;2023-07-16T04:51:04;14.68;;;6.85;;
56537;SDS011;42435;53.292;6.000;2023-07-16T04:53:29;11.70;;;4.97;;
56537;SDS011;42435;53.292;6.000;2023-07-16T04:55:55;15.68;;;6.38;;
56537;SDS011;42435;53.292;6.000;2023-07-16T04:58:22;14.35;;;5.72;;
56537;SDS011;42435;53.292;6.000;2023-07-16T05:00:48;15.75;;;5.45;;
56537;SDS011;42435;53.292;6.000;2023-07-16T05:03:14;11.77;;;5.68;;
56537;SDS011;42435;53.292;6.000;2023-07-16T05:05:40;12.85;;;5.28;;
56537;SDS011;42435;53.292;6.000;2023-07-16T05:08:05;11.38;;;4.43;;
56537;SDS011;42435;53.292;6.000;2023-07-16T05:10:31;17.45;;;5.72;;
56537;SDS011;42435;53.292;6.000;2023-07-16T05:12:57;16.05;;;4.80;;
56537;SDS011;42435;53.292;6.000;2023-07-16T05:15:23;12.05;;;5.20;;
56537;SDS011;42435;53.292;6.000;2023-07-16T05:17:48;16.65;;;5.78;;
56537;SDS011;42435;53.292;6.000;2023-07-16T05:20:14;12.60;;;5.30;;
56537;SDS011;42435;53.292;6.000;2023-07-16T05:22:39;14.70;;;5.82;;
56537;SDS011;42435;53.292;6.000;2023-07-16T05:25:05;12.70;;;5.22;;
56537;SDS011;42435;53.292;6.000;2023-07-16T05:27:31;13.55;;;5.75;;
56537;SDS011;42435;53.292;6.000;2023-07-16T05:29:58;13.95;;;6.00;;
56537;SDS011;42435;53.292;6.000;2023-07-16T05:32:23;15.57;;;5.90;;
56537;SDS011;42435;53.292;6.000;2023-07-16T05:34:49;12.60;;;5.53;;
56537;SDS011;42435;53.292;6.000;2023-07-16T05:37:14;13.98;;;5.28;;
56537;SDS011;42435;53.292;6.000;2023-07-16T05:39:40;17.38;;;6.32;;
56537;SDS011;42435;53.292;6.000;2023-07-16T05:42:06;14.13;;;6.30;;
56537;SDS011;42435;53.292;6.000;2023-07-16T05:44:31;14.73;;;6.07;;
56537;SDS011;42435;53.292;6.000;2023-07-16T05:46:57;12.25;;;5.88;;
56537;SDS011;42435;53.292;6.000;2023-07-16T05:49:23;13.35;;;5.38;;
56537;SDS011;42435;53.292;6.000;2023-07-16T05:51:53;15.07;;;5.82;;
56537;SDS011;42435;53.292;6.000;2023-07-16T05:54:20;13.55;;;5.47;;
56537;SDS011;42435;53.292;6.000;2023-07-16T05:56:47;20.25;;;5.95;;
56537;SDS011;42435;53.292;6.000;2023-07-16T05:59:12;13.57;;;5.25;;
56537;SDS011;42435;53.292;6.000;2023-07-16T06:01:38;15.90;;;6.32;;
56537;SDS011;42435;53.292;6.000;2023-07-16T06:04:04;15.80;;;5.20;;
56537;SDS011;42435;53.292;6.000;2023-07-16T06:06:30;13.60;;;5.47;;
56537;SDS011;42435;53.292;6.000;2023-07-16T06:08:56;15.77;;;5.00;;
56537;SDS011;42435;53.292;6.000;2023-07-16T06:11:21;13.65;;;5.60;;
56537;SDS011;42435;53.292;6.000;2023-07-16T06:13:47;12.35;;;4.55;;
56537;SDS011;42435;53.292;6.000;2023-07-16T06:16:12;11.60;;;4.90;;
56537;SDS011;42435;53.292;6.000;2023-07-16T06:18:38;10.38;;;4.63;;
56537;SDS011;42435;53.292;6.000;2023-07-16T06:21:03;10.32;;;4.38;;
56537;SDS011;42435;53.292;6.000;2023-07-16T06:23:29;9.23;;;4.18;;
56537;SDS011;42435;53.292;6.000;2023-07-16T06:25:55;12.13;;;4.72;;
56537;SDS011;42435;53.292;6.000;2023-07-16T06:28:21;12.52;;;5.22;;
56537;SDS011;42435;53.292;6.000;2023-07-16T06:30:47;15.25;;;4.95;;
56537;SDS011;42435;53.292;6.000;2023-07-16T06:33:13;10.27;;;4.93;;
56537;SDS011;42435;53.292;6.000;2023-07-16T06:35:38;12.55;;;4.43;;
56537;SDS011;42435;53.292;6.000;2023-07-16T06:38:04;13.57;;;5.00;;
56537;SDS011;42435;53.292;6.000;2023-07-16T06:40:29;13.73;;;5.35;;
56537;SDS011;42435;53.292;6.000;2023-07-16T06:42:55;13.15;;;4.85;;
56537;SDS011;42435;53.292;6.000;2023-07-16T06:45:22;13.50;;;4.97;;
56537;SDS011;42435;53.292;6.000;2023-07-16T06:47:47;10.55;;;4.88;;
56537;SDS011;42435;53.292;6.000;2023-07-16T06:50:13;12.85;;;5.82;;
56537;SDS011;42435;53.292;6.000;2023-07-16T06:52:40;11.63;;;4.70;;
56537;SDS011;42435;53.292;6.000;2023-07-16T06:55:05;12.60;;;5.65;;
56537;SDS011;42435;53.292;6.000;2023-07-16T06:57:31;11.82;;;5.57;;
56537;SDS011;42435;53.292;6.000;2023-07-16T06:59:57;13.00;;;5.60;;
56537;SDS011;42435;53.292;6.000;2023-07-16T07:02:23;6.07;;;4.95;;
56537;SDS011;42435;53.292;6.000;2023-07-16T07:04:48;13.63;;;5.70;;
56537;SDS011;42435;53.292;6.000;2023-07-16T07:07:15;14.23;;;5.53;;
56537;SDS011;42435;53.292;6.000;2023-07-16T07:09:40;11.65;;;5.30;;
56537;SDS011;42435;53.292;6.000;2023-07-16T07:12:06;16.52;;;6.57;;
56537;SDS011;42435;53.292;6.000;2023-07-16T07:14:41;14.18;;;4.65;;
56537;SDS011;42435;53.292;6.000;2023-07-16T07:17:06;15.00;;;5.32;;
56537;SDS011;42435;53.292;6.000;2023-07-16T07:19:32;14.45;;;5.43;;
56537;SDS011;42435;53.292;6.000;2023-07-16T07:21:58;13.80;;;5.97;;
56537;SDS011;42435;53.292;6.000;2023-07-16T07:24:23;15.10;;;5.25;;
56537;SDS011;42435;53.292;6.000;2023-07-16T07:26:49;15.05;;;5.68;;
56537;SDS011;42435;53.292;6.000;2023-07-16T07:29:14;11.10;;;5.60;;
56537;SDS011;42435;53.292;6.000;2023-07-16T07:31:40;16.80;;;5.30;;
56537;SDS011;42435;53.292;6.000;2023-07-16T07:34:06;12.70;;;4.72;;
56537;SDS011;42435;53.292;6.000;2023-07-16T07:36:31;19.17;;;6.20;;
56537;SDS011;42435;53.292;6.000;2023-07-16T07:38:57;14.18;;;5.97;;
56537;SDS011;42435;53.292;6.000;2023-07-16T07:41:22;13.18;;;5.57;;
56537;SDS011;42435;53.292;6.000;2023-07-16T07:43:48;12.18;;;5.30;;
56537;SDS011;42435;53.292;6.000;2023-07-16T07:46:14;12.73;;;5.60;;
56537;SDS011;42435;53.292;6.000;2023-07-16T07:48:41;14.05;;;5.03;;
56537;SDS011;42435;53.292;6.000;2023-07-16T07:51:06;14.57;;;6.03;;
56537;SDS011;42435;53.292;6.000;2023-07-16T07:53:32;13.82;;;5.22;;
56537;SDS011;42435;53.292;6.000;2023-07-16T07:55:58;11.10;;;5.15;;
56537;SDS011;42435;53.292;6.000;2023-07-16T07:58:24;14.45;;;4.65;;
56537;SDS011;42435;53.292;6.000;2023-07-16T08:00:49;10.20;;;4.38;;
56537;SDS011;42435;53.292;6.000;2023-07-16T08:03:15;11.02;;;4.57;;
56537;SDS011;42435;53.292;6.000;2023-07-16T08:05:40;8.13;;;4.07;;
56537;SDS011;42435;53.292;6.000;2023-07-16T08:08:06;13.20;;;5.00;;
56537;SDS011;42435;53.292;6.000;2023-07-16T08:10:32;12.63;;;4.53;;
56537;SDS011;42435;53.292;6.000;2023-07-16T08:12:58;13.15;;;4.57;;
56537;SDS011;42435;53.292;6.000;2023-07-16T08:15:23;12.82;;;4.55;;
56537;SDS011;42435;53.292;6.000;2023-07-16T08:17:49;11.88;;;4.70;;
56537;SDS011;42435;53.292;6.000;2023-07-16T08:20:15;10.20;;;3.80;;
56537;SDS011;42435;53.292;6.000;2023-07-16T08:22:40;13.98;;;5.05;;
56537;SDS011;42435;53.292;6.000;2023-07-16T08:25:06;13.27;;;4.78;;
56537;SDS011;42435;53.292;6.000;2023-07-16T08:27:33;9.88;;;4.80;;
56537;SDS011;42435;53.292;6.000;2023-07-16T08:29:59;11.55;;;4.75;;
56537;SDS011;42435;53.292;6.000;2023-07-16T08:32:25;10.25;;;5.07;;
56537;SDS011;42435;53.292;6.000;2023-07-16T08:34:50;14.75;;;5.20;;
56537;SDS011;42435;53.292;6.000;2023-07-16T08:37:16;13.50;;;4.95;;
56537;SDS011;42435;53.292;6.000;2023-07-16T08:39:41;14.10;;;5.18;;
56537;SDS011;42435;53.292;6.000;2023-07-16T08:42:09;14.52;;;5.40;;
56537;SDS011;42435;53.292;6.000;2023-07-16T08:44:39;14.45;;;5.65;;
56537;SDS011;42435;53.292;6.000;2023-07-16T08:47:06;15.77;;;4.82;;
56537;SDS011;42435;53.292;6.000;2023-07-16T08:49:32;13.00;;;4.75;;
56537;SDS011;42435;53.292;6.000;2023-07-16T08:52:01;14.23;;;4.68;;
56537;SDS011;42435;53.292;6.000;2023-07-16T08:54:27;12.77;;;4.60;;
56537;SDS011;42435;53.292;6.000;2023-07-16T08:56:53;9.45;;;4.25;;
56537;SDS011;42435;53.292;6.000;2023-07-16T08:59:19;11.93;;;4.05;;
56537;SDS011;42435;53.292;6.000;2023-07-16T09:01:49;12.13;;;4.40;;
56537;SDS011;42435;53.292;6.000;2023-07-16T09:04:14;11.13;;;3.90;;
56537;SDS011;42435;53.292;6.000;2023-07-16T09:06:41;13.93;;;4.10;;
56537;SDS011;42435;53.292;6.000;2023-07-16T09:09:07;11.48;;;3.90;;
56537;SDS011;42435;53.292;6.000;2023-07-16T09:11:33;15.57;;;4.40;;
56537;SDS011;42435;53.292;6.000;2023-07-16T09:14:01;11.68;;;4.13;;
56537;SDS011;42435;53.292;6.000;2023-07-16T09:16:31;13.10;;;5.05;;
56537;SDS011;42435;53.292;6.000;2023-07-16T09:19:05;14.00;;;5.63;;
56537;SDS011;42435;53.292;6.000;2023-07-16T09:21:32;16.13;;;4.55;;
56537;SDS011;42435;53.292;6.000;2023-07-16T09:23:59;14.52;;;4.45;;
56537;SDS011;42435;53.292;6.000;2023-07-16T09:26:25;12.55;;;4.85;;
56537;SDS011;42435;53.292;6.000;2023-07-16T09:28:54;14.65;;;4.78;;
56537;SDS011;42435;53.292;6.000;2023-07-16T09:31:21;12.45;;;4.70;;
56537;SDS011;42435;53.292;6.000;2023-07-16T09:33:49;10.10;;;5.03;;
56537;SDS011;42435;53.292;6.000;2023-07-16T09:36:22;13.65;;;5.00;;
56537;SDS011;42435;53.292;6.000;2023-07-16T09:38:49;11.05;;;5.13;;
56537;SDS011;42435;53.292;6.000;2023-07-16T09:41:16;11.55;;;4.80;;
56537;SDS011;42435;53.292;6.000;2023-07-16T09:43:43;9.93;;;4.82;;
56537;SDS011;42435;53.292;6.000;2023-07-16T09:46:09;14.55;;;5.97;;
56537;SDS011;42435;53.292;6.000;2023-07-16T09:48:34;23.35;;;5.28;;
56537;SDS011;42435;53.292;6.000;2023-07-16T09:51:00;9.15;;;4.85;;
56537;SDS011;42435;53.292;6.000;2023-07-16T09:53:26;12.82;;;5.20;;
56537;SDS011;42435;53.292;6.000;2023-07-16T09:55:56;12.00;;;4.50;;
56537;SDS011;42435;53.292;6.000;2023-07-16T09:58:26;10.85;;;4.47;;
56537;SDS011;42435;53.292;6.000;2023-07-16T10:00:52;9.30;;;5.00;;
56537;SDS011;42435;53.292;6.000;2023-07-16T10:03:18;8.85;;;4.15;;
56537;SDS011;42435;53.292;6.000;2023-07-16T10:05:45;9.45;;;4.35;;
56537;SDS011;42435;53.292;6.000;2023-07-16T10:08:18;8.45;;;4.25;;
56537;SDS011;42435;53.292;6.000;2023-07-16T10:10:48;14.23;;;4.97;;
56537;SDS011;42435;53.292;6.000;2023-07-16T10:13:21;7.43;;;3.70;;
56537;SDS011;42435;53.292;6.000;2023-07-16T10:15:54;10.05;;;4.50;;
56537;SDS011;42435;53.292;6.000;2023-07-16T10:21:03;13.07;;;4.50;;
56537;SDS011;42435;53.292;6.000;2023-07-16T10:23:39;11.27;;;4.07;;
56537;SDS011;42435;53.292;6.000;2023-07-16T10:26:06;10.68;;;4.55;;
56537;SDS011;42435;53.292;6.000;2023-07-16T10:28:37;13.57;;;4.88;;
56537;SDS011;42435;53.292;6.000;2023-07-16T10:31:03;12.20;;;4.65;;
56537;SDS011;42435;53.292;6.000;2023-07-16T10:33:30;10.98;;;4.43;;
56537;SDS011;42435;53.292;6.000;2023-07-16T10:35:56;11.90;;;4.00;;
56537;SDS011;42435;53.292;6.000;2023-07-16T10:38:24;13.68;;;4.70;;
56537;SDS011;42435;53.292;6.000;2023-07-16T10:40:49;12.43;;;4.25;;
56537;SDS011;42435;53.292;6.000;2023-07-16T10:43:15;11.32;;;3.75;;
56537;SDS011;42435;53.292;6.000;2023-07-16T10:45:41;12.30;;;4.53;;
56537;SDS011;42435;53.292;6.000;2023-07-16T10:48:07;10.60;;;3.72;;
56537;SDS011;42435;53.292;6.000;2023-07-16T10:50:33;13.68;;;4.47;;
56537;SDS011;42435;53.292;6.000;2023-07-16T10:52:59;14.73;;;4.85;;
56537;SDS011;42435;53.292;6.000;2023-07-16T10:55:26;10.25;;;4.43;;
56537;SDS011;42435;53.292;6.000;2023-07-16T10:57:53;17.92;;;5.32;;
56537;SDS011;42435;53.292;6.000;2023-07-16T11:00:20;10.20;;;4.05;;
56537;SDS011;42435;53.292;6.000;2023-07-16T11:02:47;9.93;;;4.75;;
56537;SDS011;42435;53.292;6.000;2023-07-16T11:05:15;12.65;;;4.50;;
56537;SDS011;42435;53.292;6.000;2023-07-16T11:07:47;13.45;;;4.68;;
56537;SDS011;42435;53.292;6.000;2023-07-16T11:10:16;12.38;;;4.18;;
56537;SDS011;42435;53.292;6.000;2023-07-16T11:12:42;11.40;;;4.28;;
56537;SDS011;42435;53.292;6.000;2023-07-16T11:15:08;13.32;;;5.47;;
56537;SDS011;42435;53.292;6.000;2023-07-16T11:17:36;10.70;;;4.45;;
56537;SDS011;42435;53.292;6.000;2023-07-16T11:20:06;9.50;;;4.53;;
56537;SDS011;42435;53.292;6.000;2023-07-16T11:22:36;10.88;;;5.28;;
56537;SDS011;42435;53.292;6.000;2023-07-16T11:25:03;13.18;;;5.38;;
56537;SDS011;42435;53.292;6.000;2023-07-16T11:27:36;12.13;;;4.22;;
56537;SDS011;42435;53.292;6.000;2023-07-16T11:30:05;18.10;;;5.30;;
56537;SDS011;42435;53.292;6.000;2023-07-16T11:32:32;10.75;;;3.72;;
56537;SDS011;42435;53.292;6.000;2023-07-16T11:35:00;11.10;;;3.88;;
56537;SDS011;42435;53.292;6.000;2023-07-16T11:37:30;14.07;;;5.45;;
56537;SDS011;42435;53.292;6.000;2023-07-16T11:39:57;12.30;;;3.63;;
56537;SDS011;42435;53.292;6.000;2023-07-16T11:42:31;12.18;;;3.50;;
56537;SDS011;42435;53.292;6.000;2023-07-16T11:45:02;11.70;;;3.45;;
56537;SDS011;42435;53.292;6.000;2023-07-16T11:47:29;7.82;;;3.03;;
56537;SDS011;42435;53.292;6.000;2023-07-16T11:49:57;10.40;;;3.22;;
56537;SDS011;42435;53.292;6.000;2023-07-16T11:52:24;11.98;;;3.05;;
56537;SDS011;42435;53.292;6.000;2023-07-16T11:54:54;10.07;;;2.13;;
56537;SDS011;42435;53.292;6.000;2023-07-16T11:57:27;8.50;;;2.10;;
56537;SDS011;42435;53.292;6.000;2023-07-16T11:59:53;9.63;;;2.10;;
56537;SDS011;42435;53.292;6.000;2023-07-16T12:02:20;10.40;;;2.55;;
56537;SDS011;42435;53.292;6.000;2023-07-16T12:04:47;10.25;;;2.60;;
56537;SDS011;42435;53.292;6.000;2023-07-16T12:07:13;12.32;;;2.60;;
56537;SDS011;42435;53.292;6.000;2023-07-16T12:09:39;7.78;;;2.17;;
56537;SDS011;42435;53.292;6.000;2023-07-16T12:12:05;11.30;;;2.92;;
56537;SDS011;42435;53.292;6.000;2023-07-16T12:14:32;12.05;;;3.22;;
56537;SDS011;42435;53.292;6.000;2023-07-16T12:16:58;11.27;;;2.90;;
56537;SDS011;42435;53.292;6.000;2023-07-16T12:19:24;10.77;;;3.03;;
56537;SDS011;42435;53.292;6.000;2023-07-16T12:21:50;13.55;;;3.30;;
56537;SDS011;42435;53.292;6.000;2023-07-16T12:24:16;8.50;;;2.67;;
56537;SDS011;42435;53.292;6.000;2023-07-16T12:26:42;9.45;;;3.80;;
56537;SDS011;42435;53.292;6.000;2023-07-16T12:29:09;14.88;;;3.90;;
56537;SDS011;42435;53.292;6.000;2023-07-16T12:31:34;14.82;;;4.90;;
56537;SDS011;42435;53.292;6.000;2023-07-16T12:34:00;17.75;;;4.10;;
56537;SDS011;42435;53.292;6.000;2023-07-16T12:36:29;17.08;;;4.63;;
56537;SDS011;42435;53.292;6.000;2023-07-16T12:38:55;15.68;;;4.20;;
56537;SDS011;42435;53.292;6.000;2023-07-16T12:41:21;13.27;;;3.85;;
56537;SDS011;42435;53.292;6.000;2023-07-16T12:43:48;22.48;;;5.35;;
56537;SDS011;42435;53.292;6.000;2023-07-16T12:46:13;12.48;;;4.10;;
56537;SDS011;42435;53.292;6.000;2023-07-16T12:48:39;16.75;;;4.10;;
56537;SDS011;42435;53.292;6.000;2023-07-16T12:51:05;13.10;;;4.10;;
56537;SDS011;42435;53.292;6.000;2023-07-16T12:53:30;17.13;;;4.72;;
56537;SDS011;42435;53.292;6.000;2023-07-16T12:55:56;16.75;;;4.03;;
56537;SDS011;42435;53.292;6.000;2023-07-16T12:58:22;21.08;;;5.13;;
56537;SDS011;42435;53.292;6.000;2023-07-16T13:00:47;13.27;;;3.40;;
56537;SDS011;42435;53.292;6.000;2023-07-16T13:03:13;19.25;;;4.53;;
56537;SDS011;42435;53.292;6.000;2023-07-16T13:05:41;17.15;;;4.13;;
56537;SDS011;42435;53.292;6.000;2023-07-16T13:08:08;14.30;;;3.38;;
56537;SDS011;42435;53.292;6.000;2023-07-16T13:10:34;18.80;;;3.67;;
56537;SDS011;42435;53.292;6.000;2023-07-16T13:13:00;17.73;;;3.80;;
56537;SDS011;42435;53.292;6.000;2023-07-16T13:15:26;12.98;;;3.55;;
56537;SDS011;42435;53.292;6.000;2023-07-16T13:17:53;15.27;;;4.55;;
56537;SDS011;42435;53.292;6.000;2023-07-16T13:20:19;13.70;;;3.60;;
56537;SDS011;42435;53.292;6.000;2023-07-16T13:22:48;17.17;;;3.25;;
56537;SDS011;42435;53.292;6.000;2023-07-16T13:25:15;23.80;;;3.90;;
56537;SDS011;42435;53.292;6.000;2023-07-16T13:27:41;13.95;;;4.30;;
56537;SDS011;42435;53.292;6.000;2023-07-16T13:30:09;15.93;;;3.80;;
56537;SDS011;42435;53.292;6.000;2023-07-16T13:32:36;16.65;;;3.30;;
56537;SDS011;42435;53.292;6.000;2023-07-16T13:35:02;11.70;;;2.80;;
56537;SDS011;42435;53.292;6.000;2023-07-16T13:37:28;15.23;;;3.83;;
56537;SDS011;42435;53.292;6.000;2023-07-16T13:39:53;12.45;;;2.78;;
56537;SDS011;42435;53.292;6.000;2023-07-16T13:42:19;15.07;;;3.53;;
56537;SDS011;42435;53.292;6.000;2023-07-16T13:44:44;14.07;;;3.85;;
56537;SDS011;42435;53.292;6.000;2023-07-16T13:47:10;10.65;;;2.92;;
56537;SDS011;42435;53.292;6.000;2023-07-16T13:49:36;10.43;;;3.80;;
56537;SDS011;42435;53.292;6.000;2023-07-16T13:52:01;11.57;;;3.00;;
56537;SDS011;42435;53.292;6.000;2023-07-16T13:54:27;14.63;;;3.45;;
56537;SDS011;42435;53.292;6.000;2023-07-16T13:56:52;18.30;;;3.03;;
56537;SDS011;42435;53.292;6.000;2023-07-16T13:59:18;17.40;;;3.05;;
56537;SDS011;42435;53.292;6.000;2023-07-16T14:01:44;14.45;;;4.15;;
56537;SDS011;42435;53.292;6.000;2023-07-16T14:04:09;12.48;;;2.65;;
56537;SDS011;42435;53.292;6.000;2023-07-16T14:06:35;13.38;;;2.92;;
56537;SDS011;42435;53.292;6.000;2023-07-16T14:09:01;14.00;;;2.85;;
56537;SDS011;42435;53.292;6.000;2023-07-16T14:11:27;13.75;;;3.22;;
56537;SDS011;42435;53.292;6.000;2023-07-16T14:13:52;13.70;;;3.25;;
56537;SDS011;42435;53.292;6.000;2023-07-16T14:16:19;15.10;;;3.20;;
56537;SDS011;42435;53.292;6.000;2023-07-16T14:18:52;12.07;;;3.00;;
56537;SDS011;42435;53.292;6.000;2023-07-16T14:21:19;9.95;;;2.63;;
56537;SDS011;42435;53.292;6.000;2023-07-16T14:23:45;14.52;;;2.92;;
56537;SDS011;42435;53.292;6.000;2023-07-16T14:26:12;16.20;;;3.03;;
56537;SDS011;42435;53.292;6.000;2023-07-16T14:28:37;12.40;;;2.92;;
56537;SDS011;42435;53.292;6.000;2023-07-16T14:31:03;10.13;;;2.47;;
56537;SDS011;42435;53.292;6.000;2023-07-16T14:33:29;8.90;;;2.25;;
56537;SDS011;42435;53.292;6.000;2023-07-16T14:35:54;12.57;;;2.67;;
56537;SDS011;42435;53.292;6.000;2023-07-16T14:38:20;12.50;;;2.72;;
56537;SDS011;42435;53.292;6.000;2023-07-16T14:40:46;8.82;;;2.05;;
56537;SDS011;42435;53.292;6.000;2023-07-16T14:43:13;9.02;;;1.80;;
56537;SDS011;42435;53.292;6.000;2023-07-16T14:45:38;11.77;;;2.33;;